sensor_id;sensor_type;location;lat;lon;timestamp;P1;durP1;ratioP1;P2;durP2;ratioP2
84818;SDS011;75053;51.080;13.712;2024-03-02T00:00:00;62.70;;;39.27;;
84818;SDS011;75053;51.080;13.712;2024-03-02T00:02:28;60.97;;;37.50;;
84818;SDS011;75053;51.080;13.712;2024-03-02T00:04:53;69.80;;;38.43;;
84818;SDS011;75053;51.080;13.712;2024-03-02T00:07:19;79.57;;;39.77;;
84818;SDS011;75053;51.080;13.712;2024-03-02T00:09:44;68.00;;;38.33;;
84818;SDS011;75053;51.080;13.712;2024-03-02T00:12:11;71.73;;;38.03;;
84818;SDS011;75053;51.080;13.712;2024-03-02T00:14:41;70.27;;;38.77;;
84818;SDS011;75053;51.080;13.712;2024-03-02T00:17:08;65.85;;;38.50;;
84818;SDS011;75053;51.080;13.712;2024-03-02T00:19:46;60.27;;;36.13;;
84818;SDS011;75053;51.080;13.712;2024-03-02T00:22:11;65.28;;;38.20;;
84818;SDS011;75053;51.080;13.712;2024-03-02T00:24:37;70.25;;;36.83;;
84818;SDS011;75053;51.080;13.712;2024-03-02T00:27:04;69.90;;;38.63;;
84818;SDS011;75053;51.080;13.712;2024-03-02T00:29:32;61.37;;;37.93;;
84818;SDS011;75053;51.080;13.712;2024-03-02T00:31:59;67.97;;;39.63;;
84818;SDS011;75053;51.080;13.712;2024-03-02T00:34:26;74.80;;;38.72;;
84818;SDS011;75053;51.080;13.712;2024-03-02T00:36:51;73.68;;;39.65;;
84818;SDS011;75053;51.080;13.712;2024-03-02T00:39:17;66.82;;;39.92;;
84818;SDS011;75053;51.080;13.712;2024-03-02T00:41:43;73.90;;;41.23;;
84818;SDS011;75053;51.080;13.712;2024-03-02T00:44:11;67.33;;;40.23;;
84818;SDS011;75053;51.080;13.712;2024-03-02T00:46:38;70.22;;;41.83;;
84818;SDS011;75053;51.080;13.712;2024-03-02T00:51:36;70.07;;;39.80;;
84818;SDS011;75053;51.080;13.712;2024-03-02T00:54:03;68.63;;;39.20;;
84818;SDS011;75053;51.080;13.712;2024-03-02T00:56:30;72.57;;;39.60;;
84818;SDS011;75053;51.080;13.712;2024-03-02T00:58:56;79.33;;;42.30;;
84818;SDS011;75053;51.080;13.712;2024-03-02T01:01:22;62.67;;;39.60;;
84818;SDS011;75053;51.080;13.712;2024-03-02T01:03:48;70.50;;;41.10;;
84818;SDS011;75053;51.080;13.712;2024-03-02T01:06:17;78.30;;;42.10;;
84818;SDS011;75053;51.080;13.712;2024-03-02T01:08:43;74.17;;;41.70;;
84818;SDS011;75053;51.080;13.712;2024-03-02T01:11:09;71.53;;;40.43;;
84818;SDS011;75053;51.080;13.712;2024-03-02T01:13:35;80.30;;;42.07;;
84818;SDS011;75053;51.080;13.712;2024-03-02T01:16:01;68.27;;;42.27;;
84818;SDS011;75053;51.080;13.712;2024-03-02T01:18:27;83.17;;;46.83;;
84818;SDS011;75053;51.080;13.712;2024-03-02T01:20:53;72.38;;;41.63;;
84818;SDS011;75053;51.080;13.712;2024-03-02T01:23:21;72.90;;;41.70;;
84818;SDS011;75053;51.080;13.712;2024-03-02T01:25:49;67.03;;;42.47;;
84818;SDS011;75053;51.080;13.712;2024-03-02T01:28:15;69.57;;;40.57;;
84818;SDS011;75053;51.080;13.712;2024-03-02T01:30:41;68.27;;;41.50;;
84818;SDS011;75053;51.080;13.712;2024-03-02T01:33:07;80.72;;;44.47;;
84818;SDS011;75053;51.080;13.712;2024-03-02T01:35:33;72.13;;;42.17;;
84818;SDS011;75053;51.080;13.712;2024-03-02T01:38:00;79.95;;;42.88;;
84818;SDS011;75053;51.080;13.712;2024-03-02T01:40:25;68.37;;;41.50;;
84818;SDS011;75053;51.080;13.712;2024-03-02T01:42:51;76.40;;;41.03;;
84818;SDS011;75053;51.080;13.712;2024-03-02T01:45:18;70.17;;;40.77;;
84818;SDS011;75053;51.080;13.712;2024-03-02T01:47:43;67.63;;;42.37;;
84818;SDS011;75053;51.080;13.712;2024-03-02T01:50:10;70.63;;;42.83;;
84818;SDS011;75053;51.080;13.712;2024-03-02T01:52:36;71.00;;;42.38;;
84818;SDS011;75053;51.080;13.712;2024-03-02T01:55:02;73.85;;;42.20;;
84818;SDS011;75053;51.080;13.712;2024-03-02T01:57:28;66.40;;;39.53;;
84818;SDS011;75053;51.080;13.712;2024-03-02T01:59:54;68.40;;;40.97;;
84818;SDS011;75053;51.080;13.712;2024-03-02T02:02:20;71.10;;;42.03;;
84818;SDS011;75053;51.080;13.712;2024-03-02T02:04:45;73.07;;;43.47;;
84818;SDS011;75053;51.080;13.712;2024-03-02T02:07:11;69.50;;;41.13;;
84818;SDS011;75053;51.080;13.712;2024-03-02T02:09:36;68.72;;;41.40;;
84818;SDS011;75053;51.080;13.712;2024-03-02T02:12:02;67.82;;;41.88;;
84818;SDS011;75053;51.080;13.712;2024-03-02T02:14:29;71.67;;;42.13;;
84818;SDS011;75053;51.080;13.712;2024-03-02T02:16:55;69.00;;;39.60;;
84818;SDS011;75053;51.080;13.712;2024-03-02T02:19:20;73.67;;;42.87;;
84818;SDS011;75053;51.080;13.712;2024-03-02T02:21:46;82.45;;;40.97;;
84818;SDS011;75053;51.080;13.712;2024-03-02T02:24:11;72.53;;;41.33;;
84818;SDS011;75053;51.080;13.712;2024-03-02T02:26:38;77.57;;;44.72;;
84818;SDS011;75053;51.080;13.712;2024-03-02T02:29:03;75.03;;;40.80;;
84818;SDS011;75053;51.080;13.712;2024-03-02T02:31:39;71.27;;;42.03;;
84818;SDS011;75053;51.080;13.712;2024-03-02T02:34:05;71.73;;;40.10;;
84818;SDS011;75053;51.080;13.712;2024-03-02T02:36:33;77.18;;;42.75;;
84818;SDS011;75053;51.080;13.712;2024-03-02T02:42:25;72.80;;;42.22;;
84818;SDS011;75053;51.080;13.712;2024-03-02T02:44:50;73.30;;;40.80;;
84818;SDS011;75053;51.080;13.712;2024-03-02T02:47:16;66.23;;;40.53;;
84818;SDS011;75053;51.080;13.712;2024-03-02T02:49:41;61.78;;;40.35;;
84818;SDS011;75053;51.080;13.712;2024-03-02T02:52:07;75.47;;;41.55;;
84818;SDS011;75053;51.080;13.712;2024-03-02T02:54:32;65.70;;;40.63;;
84818;SDS011;75053;51.080;13.712;2024-03-02T02:56:57;71.00;;;40.67;;
84818;SDS011;75053;51.080;13.712;2024-03-02T02:59:24;69.70;;;41.07;;
84818;SDS011;75053;51.080;13.712;2024-03-02T03:01:51;69.07;;;43.90;;
84818;SDS011;75053;51.080;13.712;2024-03-02T03:04:16;74.15;;;41.70;;
84818;SDS011;75053;51.080;13.712;2024-03-02T03:06:42;67.73;;;42.20;;
84818;SDS011;75053;51.080;13.712;2024-03-02T03:09:08;68.40;;;42.13;;
84818;SDS011;75053;51.080;13.712;2024-03-02T03:11:36;67.40;;;42.40;;
84818;SDS011;75053;51.080;13.712;2024-03-02T03:14:01;62.33;;;40.75;;
84818;SDS011;75053;51.080;13.712;2024-03-02T03:16:27;78.28;;;43.55;;
84818;SDS011;75053;51.080;13.712;2024-03-02T03:18:52;66.70;;;41.70;;
84818;SDS011;75053;51.080;13.712;2024-03-02T03:21:18;68.70;;;43.37;;
84818;SDS011;75053;51.080;13.712;2024-03-02T03:23:44;70.15;;;42.45;;
84818;SDS011;75053;51.080;13.712;2024-03-02T03:26:09;62.83;;;40.30;;
84818;SDS011;75053;51.080;13.712;2024-03-02T03:28:35;63.57;;;41.33;;
84818;SDS011;75053;51.080;13.712;2024-03-02T03:31:00;74.93;;;43.33;;
84818;SDS011;75053;51.080;13.712;2024-03-02T03:33:27;68.20;;;42.80;;
84818;SDS011;75053;51.080;13.712;2024-03-02T03:35:52;70.80;;;42.47;;
84818;SDS011;75053;51.080;13.712;2024-03-02T03:38:18;72.80;;;42.50;;
84818;SDS011;75053;51.080;13.712;2024-03-02T03:40:44;70.90;;;41.17;;
84818;SDS011;75053;51.080;13.712;2024-03-02T03:43:10;71.90;;;41.73;;
84818;SDS011;75053;51.080;13.712;2024-03-02T03:45:35;68.40;;;42.40;;
84818;SDS011;75053;51.080;13.712;2024-03-02T03:48:03;67.95;;;42.15;;
84818;SDS011;75053;51.080;13.712;2024-03-02T03:50:29;65.37;;;40.33;;
84818;SDS011;75053;51.080;13.712;2024-03-02T03:52:55;78.73;;;42.57;;
84818;SDS011;75053;51.080;13.712;2024-03-02T03:55:20;74.93;;;40.10;;
84818;SDS011;75053;51.080;13.712;2024-03-02T03:57:45;66.37;;;42.17;;
84818;SDS011;75053;51.080;13.712;2024-03-02T04:00:11;69.10;;;42.47;;
84818;SDS011;75053;51.080;13.712;2024-03-02T04:02:37;62.27;;;41.07;;
84818;SDS011;75053;51.080;13.712;2024-03-02T04:05:03;68.37;;;40.33;;
84818;SDS011;75053;51.080;13.712;2024-03-02T04:07:33;73.10;;;42.53;;
84818;SDS011;75053;51.080;13.712;2024-03-02T04:10:04;69.68;;;41.88;;
84818;SDS011;75053;51.080;13.712;2024-03-02T04:12:33;69.13;;;41.40;;
84818;SDS011;75053;51.080;13.712;2024-03-02T04:14:58;65.33;;;41.73;;
84818;SDS011;75053;51.080;13.712;2024-03-02T04:17:24;70.90;;;41.13;;
84818;SDS011;75053;51.080;13.712;2024-03-02T04:19:49;60.77;;;40.67;;
84818;SDS011;75053;51.080;13.712;2024-03-02T04:22:15;63.85;;;39.90;;
84818;SDS011;75053;51.080;13.712;2024-03-02T04:24:40;65.97;;;40.57;;
84818;SDS011;75053;51.080;13.712;2024-03-02T04:27:05;64.70;;;39.27;;
84818;SDS011;75053;51.080;13.712;2024-03-02T04:29:31;62.93;;;41.37;;
84818;SDS011;75053;51.080;13.712;2024-03-02T04:31:57;67.10;;;41.27;;
84818;SDS011;75053;51.080;13.712;2024-03-02T04:34:22;64.75;;;40.33;;
84818;SDS011;75053;51.080;13.712;2024-03-02T04:36:48;60.60;;;39.80;;
84818;SDS011;75053;51.080;13.712;2024-03-02T04:39:13;69.40;;;41.07;;
84818;SDS011;75053;51.080;13.712;2024-03-02T04:41:38;65.17;;;42.03;;
84818;SDS011;75053;51.080;13.712;2024-03-02T04:44:04;60.37;;;39.83;;
84818;SDS011;75053;51.080;13.712;2024-03-02T04:46:31;68.50;;;43.03;;
84818;SDS011;75053;51.080;13.712;2024-03-02T04:48:56;63.13;;;40.30;;
84818;SDS011;75053;51.080;13.712;2024-03-02T04:51:22;61.23;;;39.10;;
84818;SDS011;75053;51.080;13.712;2024-03-02T04:53:48;65.20;;;39.13;;
84818;SDS011;75053;51.080;13.712;2024-03-02T04:56:13;62.13;;;39.90;;
84818;SDS011;75053;51.080;13.712;2024-03-02T04:58:47;70.57;;;40.63;;
84818;SDS011;75053;51.080;13.712;2024-03-02T05:01:13;69.67;;;42.57;;
84818;SDS011;75053;51.080;13.712;2024-03-02T05:03:38;61.63;;;39.93;;
84818;SDS011;75053;51.080;13.712;2024-03-02T05:06:04;59.73;;;40.47;;
84818;SDS011;75053;51.080;13.712;2024-03-02T05:08:29;64.28;;;40.70;;
84818;SDS011;75053;51.080;13.712;2024-03-02T05:10:57;61.87;;;40.23;;
84818;SDS011;75053;51.080;13.712;2024-03-02T05:13:43;67.60;;;41.90;;
84818;SDS011;75053;51.080;13.712;2024-03-02T05:16:08;71.07;;;41.20;;
84818;SDS011;75053;51.080;13.712;2024-03-02T05:18:34;66.30;;;38.97;;
84818;SDS011;75053;51.080;13.712;2024-03-02T05:20:59;71.03;;;43.22;;
84818;SDS011;75053;51.080;13.712;2024-03-02T05:23:24;68.10;;;40.92;;
84818;SDS011;75053;51.080;13.712;2024-03-02T05:25:50;68.47;;;41.53;;
84818;SDS011;75053;51.080;13.712;2024-03-02T05:28:15;69.87;;;41.60;;
84818;SDS011;75053;51.080;13.712;2024-03-02T05:30:42;71.93;;;43.20;;
84818;SDS011;75053;51.080;13.712;2024-03-02T05:33:07;61.50;;;40.50;;
84818;SDS011;75053;51.080;13.712;2024-03-02T05:35:36;66.83;;;43.03;;
84818;SDS011;75053;51.080;13.712;2024-03-02T05:38:01;65.05;;;40.67;;
84818;SDS011;75053;51.080;13.712;2024-03-02T05:40:30;73.90;;;43.00;;
84818;SDS011;75053;51.080;13.712;2024-03-02T05:42:55;69.83;;;41.83;;
84818;SDS011;75053;51.080;13.712;2024-03-02T05:45:21;70.30;;;41.87;;
84818;SDS011;75053;51.080;13.712;2024-03-02T05:47:46;67.40;;;41.00;;
84818;SDS011;75053;51.080;13.712;2024-03-02T05:50:12;71.40;;;42.97;;
84818;SDS011;75053;51.080;13.712;2024-03-02T05:52:37;66.15;;;41.65;;
84818;SDS011;75053;51.080;13.712;2024-03-02T05:55:04;65.43;;;39.60;;
84818;SDS011;75053;51.080;13.712;2024-03-02T05:57:29;71.23;;;43.00;;
84818;SDS011;75053;51.080;13.712;2024-03-02T06:00:20;65.57;;;40.53;;
84818;SDS011;75053;51.080;13.712;2024-03-02T06:02:47;69.15;;;40.55;;
84818;SDS011;75053;51.080;13.712;2024-03-02T06:05:12;69.90;;;42.33;;
84818;SDS011;75053;51.080;13.712;2024-03-02T06:07:38;65.03;;;41.47;;
84818;SDS011;75053;51.080;13.712;2024-03-02T06:10:03;72.47;;;43.33;;
84818;SDS011;75053;51.080;13.712;2024-03-02T06:12:30;69.23;;;42.60;;
84818;SDS011;75053;51.080;13.712;2024-03-02T06:14:56;63.30;;;41.97;;
84818;SDS011;75053;51.080;13.712;2024-03-02T06:17:21;75.23;;;43.07;;
84818;SDS011;75053;51.080;13.712;2024-03-02T06:19:47;69.87;;;41.43;;
84818;SDS011;75053;51.080;13.712;2024-03-02T06:22:12;63.20;;;42.47;;
84818;SDS011;75053;51.080;13.712;2024-03-02T06:24:38;60.90;;;39.90;;
84818;SDS011;75053;51.080;13.712;2024-03-02T06:27:03;65.53;;;40.63;;
84818;SDS011;75053;51.080;13.712;2024-03-02T06:29:32;67.13;;;39.60;;
84818;SDS011;75053;51.080;13.712;2024-03-02T06:31:58;70.50;;;42.87;;
84818;SDS011;75053;51.080;13.712;2024-03-02T06:34:23;71.00;;;43.13;;
84818;SDS011;75053;51.080;13.712;2024-03-02T06:36:48;75.03;;;42.03;;
84818;SDS011;75053;51.080;13.712;2024-03-02T06:39:14;68.00;;;41.07;;
84818;SDS011;75053;51.080;13.712;2024-03-02T06:41:42;66.40;;;41.60;;
84818;SDS011;75053;51.080;13.712;2024-03-02T06:44:08;69.03;;;43.17;;
84818;SDS011;75053;51.080;13.712;2024-03-02T06:46:33;67.27;;;42.27;;
84818;SDS011;75053;51.080;13.712;2024-03-02T06:48:58;73.43;;;42.33;;
84818;SDS011;75053;51.080;13.712;2024-03-02T06:51:24;68.97;;;41.40;;
84818;SDS011;75053;51.080;13.712;2024-03-02T06:53:49;73.03;;;41.60;;
84818;SDS011;75053;51.080;13.712;2024-03-02T06:56:15;76.93;;;43.87;;
84818;SDS011;75053;51.080;13.712;2024-03-02T06:58:40;65.53;;;41.43;;
84818;SDS011;75053;51.080;13.712;2024-03-02T07:01:06;63.43;;;41.77;;
84818;SDS011;75053;51.080;13.712;2024-03-02T07:03:31;70.07;;;41.17;;
84818;SDS011;75053;51.080;13.712;2024-03-02T07:05:57;61.37;;;41.27;;
84818;SDS011;75053;51.080;13.712;2024-03-02T07:08:23;61.87;;;41.13;;
84818;SDS011;75053;51.080;13.712;2024-03-02T07:10:48;67.03;;;41.33;;
84818;SDS011;75053;51.080;13.712;2024-03-02T07:13:14;62.05;;;41.55;;
84818;SDS011;75053;51.080;13.712;2024-03-02T07:15:39;66.43;;;40.63;;
84818;SDS011;75053;51.080;13.712;2024-03-02T07:18:23;60.83;;;40.53;;
84818;SDS011;75053;51.080;13.712;2024-03-02T07:20:49;71.93;;;41.77;;
84818;SDS011;75053;51.080;13.712;2024-03-02T07:23:14;59.75;;;39.22;;
84818;SDS011;75053;51.080;13.712;2024-03-02T07:25:40;70.27;;;42.27;;
84818;SDS011;75053;51.080;13.712;2024-03-02T07:28:05;60.17;;;39.50;;
84818;SDS011;75053;51.080;13.712;2024-03-02T07:30:32;70.73;;;41.30;;
84818;SDS011;75053;51.080;13.712;2024-03-02T07:32:58;67.27;;;41.90;;
84818;SDS011;75053;51.080;13.712;2024-03-02T07:35:24;69.73;;;40.90;;
84818;SDS011;75053;51.080;13.712;2024-03-02T07:37:52;65.67;;;41.70;;
84818;SDS011;75053;51.080;13.712;2024-03-02T07:40:18;65.30;;;40.90;;
84818;SDS011;75053;51.080;13.712;2024-03-02T07:42:44;56.27;;;37.57;;
84818;SDS011;75053;51.080;13.712;2024-03-02T07:45:10;67.75;;;39.50;;
84818;SDS011;75053;51.080;13.712;2024-03-02T07:47:36;65.78;;;39.97;;
84818;SDS011;75053;51.080;13.712;2024-03-02T07:50:02;68.55;;;39.20;;
84818;SDS011;75053;51.080;13.712;2024-03-02T07:52:28;59.87;;;38.97;;
84818;SDS011;75053;51.080;13.712;2024-03-02T07:54:54;67.45;;;40.10;;
84818;SDS011;75053;51.080;13.712;2024-03-02T07:57:21;64.43;;;40.40;;
84818;SDS011;75053;51.080;13.712;2024-03-02T07:59:46;80.00;;;46.10;;
84818;SDS011;75053;51.080;13.712;2024-03-02T08:02:15;69.30;;;41.10;;
84818;SDS011;75053;51.080;13.712;2024-03-02T08:04:41;65.43;;;40.17;;
84818;SDS011;75053;51.080;13.712;2024-03-02T08:07:06;62.75;;;39.63;;
84818;SDS011;75053;51.080;13.712;2024-03-02T08:09:34;72.17;;;42.23;;
84818;SDS011;75053;51.080;13.712;2024-03-02T08:11:59;62.57;;;39.90;;
84818;SDS011;75053;51.080;13.712;2024-03-02T08:14:25;64.63;;;38.60;;
84818;SDS011;75053;51.080;13.712;2024-03-02T08:16:50;64.93;;;39.10;;
84818;SDS011;75053;51.080;13.712;2024-03-02T08:19:16;64.37;;;39.97;;
84818;SDS011;75053;51.080;13.712;2024-03-02T08:21:42;59.83;;;38.83;;
84818;SDS011;75053;51.080;13.712;2024-03-02T08:24:08;69.15;;;42.15;;
84818;SDS011;75053;51.080;13.712;2024-03-02T08:26:34;66.97;;;41.38;;
84818;SDS011;75053;51.080;13.712;2024-03-02T08:29:00;69.72;;;40.65;;
84818;SDS011;75053;51.080;13.712;2024-03-02T08:31:29;65.90;;;37.63;;
84818;SDS011;75053;51.080;13.712;2024-03-02T08:33:55;73.93;;;37.90;;
84818;SDS011;75053;51.080;13.712;2024-03-02T08:36:22;67.88;;;38.15;;
84818;SDS011;75053;51.080;13.712;2024-03-02T08:38:48;69.50;;;37.17;;
84818;SDS011;75053;51.080;13.712;2024-03-02T08:41:15;65.10;;;37.58;;
84818;SDS011;75053;51.080;13.712;2024-03-02T08:43:41;65.35;;;37.72;;
84818;SDS011;75053;51.080;13.712;2024-03-02T08:46:07;69.30;;;36.92;;
84818;SDS011;75053;51.080;13.712;2024-03-02T08:48:34;66.55;;;39.05;;
84818;SDS011;75053;51.080;13.712;2024-03-02T08:51:00;74.03;;;36.63;;
84818;SDS011;75053;51.080;13.712;2024-03-02T08:53:25;66.00;;;35.65;;
84818;SDS011;75053;51.080;13.712;2024-03-02T08:55:51;65.13;;;33.20;;
84818;SDS011;75053;51.080;13.712;2024-03-02T08:58:16;72.03;;;36.97;;
84818;SDS011;75053;51.080;13.712;2024-03-02T09:00:42;65.38;;;34.95;;
84818;SDS011;75053;51.080;13.712;2024-03-02T09:03:07;59.80;;;31.52;;
84818;SDS011;75053;51.080;13.712;2024-03-02T09:05:33;56.50;;;31.35;;
84818;SDS011;75053;51.080;13.712;2024-03-02T09:07:58;63.05;;;31.75;;
84818;SDS011;75053;51.080;13.712;2024-03-02T09:10:24;56.53;;;30.58;;
84818;SDS011;75053;51.080;13.712;2024-03-02T09:12:49;55.42;;;29.85;;
84818;SDS011;75053;51.080;13.712;2024-03-02T09:15:15;57.53;;;31.85;;
84818;SDS011;75053;51.080;13.712;2024-03-02T09:17:41;50.80;;;28.67;;
84818;SDS011;75053;51.080;13.712;2024-03-02T09:20:06;58.30;;;28.48;;
84818;SDS011;75053;51.080;13.712;2024-03-02T09:22:32;47.80;;;27.55;;
84818;SDS011;75053;51.080;13.712;2024-03-02T09:24:58;45.42;;;25.88;;
84818;SDS011;75053;51.080;13.712;2024-03-02T09:27:23;43.60;;;25.98;;
84818;SDS011;75053;51.080;13.712;2024-03-02T09:29:49;43.55;;;25.05;;
84818;SDS011;75053;51.080;13.712;2024-03-02T09:32:14;45.33;;;25.23;;
84818;SDS011;75053;51.080;13.712;2024-03-02T09:34:40;40.65;;;24.20;;
84818;SDS011;75053;51.080;13.712;2024-03-02T09:37:06;37.03;;;23.20;;
84818;SDS011;75053;51.080;13.712;2024-03-02T09:39:31;36.00;;;22.35;;
84818;SDS011;75053;51.080;13.712;2024-03-02T09:42:00;39.72;;;23.02;;
84818;SDS011;75053;51.080;13.712;2024-03-02T09:44:26;42.47;;;22.17;;
84818;SDS011;75053;51.080;13.712;2024-03-02T09:46:51;42.33;;;22.77;;
84818;SDS011;75053;51.080;13.712;2024-03-02T09:49:17;34.97;;;21.50;;
84818;SDS011;75053;51.080;13.712;2024-03-02T09:51:46;39.70;;;22.45;;
84818;SDS011;75053;51.080;13.712;2024-03-02T09:54:22;35.30;;;21.77;;
84818;SDS011;75053;51.080;13.712;2024-03-02T09:56:48;32.47;;;19.20;;
84818;SDS011;75053;51.080;13.712;2024-03-02T09:59:15;30.67;;;19.05;;
84818;SDS011;75053;51.080;13.712;2024-03-02T10:02:00;35.05;;;20.05;;
84818;SDS011;75053;51.080;13.712;2024-03-02T10:04:27;39.33;;;22.45;;
84818;SDS011;75053;51.080;13.712;2024-03-02T10:07:15;32.00;;;20.95;;
84818;SDS011;75053;51.080;13.712;2024-03-02T10:09:43;33.97;;;21.00;;
84818;SDS011;75053;51.080;13.712;2024-03-02T10:12:14;37.80;;;20.80;;
84818;SDS011;75053;51.080;13.712;2024-03-02T10:14:41;33.13;;;20.30;;
84818;SDS011;75053;51.080;13.712;2024-03-02T10:17:09;34.53;;;20.70;;
84818;SDS011;75053;51.080;13.712;2024-03-02T10:19:36;34.30;;;20.83;;
84818;SDS011;75053;51.080;13.712;2024-03-02T10:22:02;44.22;;;24.17;;
84818;SDS011;75053;51.080;13.712;2024-03-02T10:24:43;37.45;;;21.98;;
84818;SDS011;75053;51.080;13.712;2024-03-02T10:27:27;40.47;;;24.73;;
84818;SDS011;75053;51.080;13.712;2024-03-02T10:29:54;43.13;;;22.70;;
84818;SDS011;75053;51.080;13.712;2024-03-02T10:32:22;38.00;;;22.45;;
84818;SDS011;75053;51.080;13.712;2024-03-02T10:34:47;38.88;;;23.77;;
84818;SDS011;75053;51.080;13.712;2024-03-02T10:37:15;40.88;;;23.15;;
84818;SDS011;75053;51.080;13.712;2024-03-02T10:39:48;39.47;;;22.90;;
84818;SDS011;75053;51.080;13.712;2024-03-02T10:42:17;38.55;;;22.05;;
84818;SDS011;75053;51.080;13.712;2024-03-02T10:44:44;41.85;;;23.35;;
84818;SDS011;75053;51.080;13.712;2024-03-02T10:47:10;36.45;;;22.02;;
84818;SDS011;75053;51.080;13.712;2024-03-02T10:49:37;36.08;;;22.75;;
84818;SDS011;75053;51.080;13.712;2024-03-02T10:52:03;38.53;;;23.50;;
84818;SDS011;75053;51.080;13.712;2024-03-02T10:54:31;37.97;;;21.27;;
84818;SDS011;75053;51.080;13.712;2024-03-02T10:57:01;35.22;;;20.08;;
84818;SDS011;75053;51.080;13.712;2024-03-02T10:59:33;29.60;;;18.50;;
84818;SDS011;75053;51.080;13.712;2024-03-02T11:02:01;35.53;;;19.92;;
84818;SDS011;75053;51.080;13.712;2024-03-02T11:04:30;42.47;;;21.80;;
84818;SDS011;75053;51.080;13.712;2024-03-02T11:06:59;33.35;;;20.30;;
84818;SDS011;75053;51.080;13.712;2024-03-02T11:09:28;36.10;;;20.13;;
84818;SDS011;75053;51.080;13.712;2024-03-02T11:15:09;32.55;;;18.27;;
84818;SDS011;75053;51.080;13.712;2024-03-02T11:17:37;27.38;;;17.85;;
84818;SDS011;75053;51.080;13.712;2024-03-02T11:20:33;27.42;;;17.90;;
84818;SDS011;75053;51.080;13.712;2024-03-02T11:23:13;25.65;;;16.00;;
84818;SDS011;75053;51.080;13.712;2024-03-02T11:25:50;23.90;;;16.17;;
84818;SDS011;75053;51.080;13.712;2024-03-02T11:28:16;22.48;;;15.63;;
84818;SDS011;75053;51.080;13.712;2024-03-02T11:31:01;22.17;;;15.35;;
84818;SDS011;75053;51.080;13.712;2024-03-02T11:33:27;20.08;;;13.38;;
84818;SDS011;75053;51.080;13.712;2024-03-02T11:35:54;19.95;;;12.60;;
84818;SDS011;75053;51.080;13.712;2024-03-02T11:38:21;31.00;;;13.00;;
84818;SDS011;75053;51.080;13.712;2024-03-02T11:40:52;14.60;;;10.98;;
84818;SDS011;75053;51.080;13.712;2024-03-02T11:43:18;14.95;;;10.00;;
84818;SDS011;75053;51.080;13.712;2024-03-02T11:45:44;12.30;;;8.10;;
84818;SDS011;75053;51.080;13.712;2024-03-02T11:48:11;11.32;;;8.32;;
84818;SDS011;75053;51.080;13.712;2024-03-02T11:50:42;15.73;;;9.75;;
84818;SDS011;75053;51.080;13.712;2024-03-02T11:53:12;14.07;;;8.73;;
84818;SDS011;75053;51.080;13.712;2024-03-02T11:55:39;14.98;;;9.32;;
84818;SDS011;75053;51.080;13.712;2024-03-02T11:58:06;12.23;;;8.98;;
84818;SDS011;75053;51.080;13.712;2024-03-02T12:00:32;13.77;;;8.93;;
84818;SDS011;75053;51.080;13.712;2024-03-02T12:03:01;16.02;;;8.00;;
84818;SDS011;75053;51.080;13.712;2024-03-02T12:05:28;8.93;;;7.05;;
84818;SDS011;75053;51.080;13.712;2024-03-02T12:07:58;9.55;;;7.03;;
84818;SDS011;75053;51.080;13.712;2024-03-02T12:10:25;8.07;;;7.25;;
84818;SDS011;75053;51.080;13.712;2024-03-02T12:12:55;11.65;;;7.00;;
84818;SDS011;75053;51.080;13.712;2024-03-02T12:15:33;11.82;;;8.07;;
84818;SDS011;75053;51.080;13.712;2024-03-02T12:18:02;16.25;;;8.23;;
84818;SDS011;75053;51.080;13.712;2024-03-02T12:20:28;9.75;;;7.70;;
84818;SDS011;75053;51.080;13.712;2024-03-02T12:22:56;14.20;;;8.90;;
84818;SDS011;75053;51.080;13.712;2024-03-02T12:25:24;13.55;;;8.80;;
84818;SDS011;75053;51.080;13.712;2024-03-02T12:27:50;12.48;;;9.02;;
84818;SDS011;75053;51.080;13.712;2024-03-02T12:30:17;14.95;;;9.93;;
84818;SDS011;75053;51.080;13.712;2024-03-02T12:32:43;20.88;;;9.63;;
84818;SDS011;75053;51.080;13.712;2024-03-02T12:35:19;13.80;;;9.40;;
84818;SDS011;75053;51.080;13.712;2024-03-02T12:37:49;15.80;;;11.05;;
84818;SDS011;75053;51.080;13.712;2024-03-02T12:40:16;20.52;;;13.45;;
84818;SDS011;75053;51.080;13.712;2024-03-02T12:42:43;25.10;;;14.02;;
84818;SDS011;75053;51.080;13.712;2024-03-02T12:45:10;24.70;;;15.38;;
84818;SDS011;75053;51.080;13.712;2024-03-02T12:47:36;26.48;;;15.68;;
84818;SDS011;75053;51.080;13.712;2024-03-02T12:50:03;27.33;;;16.08;;
84818;SDS011;75053;51.080;13.712;2024-03-02T12:52:29;28.02;;;15.45;;
84818;SDS011;75053;51.080;13.712;2024-03-02T12:54:55;23.60;;;14.65;;
84818;SDS011;75053;51.080;13.712;2024-03-02T12:57:27;23.70;;;14.40;;
84818;SDS011;75053;51.080;13.712;2024-03-02T13:00:00;21.63;;;14.70;;
84818;SDS011;75053;51.080;13.712;2024-03-02T13:02:27;24.52;;;14.57;;
84818;SDS011;75053;51.080;13.712;2024-03-02T13:04:54;21.33;;;13.70;;
84818;SDS011;75053;51.080;13.712;2024-03-02T13:07:20;25.48;;;13.90;;
84818;SDS011;75053;51.080;13.712;2024-03-02T13:09:49;21.75;;;12.82;;
84818;SDS011;75053;51.080;13.712;2024-03-02T13:12:15;23.45;;;13.52;;
84818;SDS011;75053;51.080;13.712;2024-03-02T13:14:41;25.05;;;14.75;;
84818;SDS011;75053;51.080;13.712;2024-03-02T13:17:10;22.85;;;13.52;;
84818;SDS011;75053;51.080;13.712;2024-03-02T13:19:35;23.65;;;14.25;;
84818;SDS011;75053;51.080;13.712;2024-03-02T13:22:00;20.38;;;14.43;;
84818;SDS011;75053;51.080;13.712;2024-03-02T13:24:29;28.20;;;12.65;;
84818;SDS011;75053;51.080;13.712;2024-03-02T13:26:57;23.20;;;14.88;;
84818;SDS011;75053;51.080;13.712;2024-03-02T13:29:23;32.25;;;18.92;;
84818;SDS011;75053;51.080;13.712;2024-03-02T13:31:49;28.38;;;14.48;;
84818;SDS011;75053;51.080;13.712;2024-03-02T13:34:15;29.05;;;15.05;;
84818;SDS011;75053;51.080;13.712;2024-03-02T13:36:40;24.85;;;12.38;;
84818;SDS011;75053;51.080;13.712;2024-03-02T13:39:06;22.85;;;12.30;;
84818;SDS011;75053;51.080;13.712;2024-03-02T13:41:34;21.42;;;14.02;;
84818;SDS011;75053;51.080;13.712;2024-03-02T13:43:59;20.00;;;12.88;;
84818;SDS011;75053;51.080;13.712;2024-03-02T13:46:26;25.67;;;13.82;;
84818;SDS011;75053;51.080;13.712;2024-03-02T13:48:52;27.90;;;14.10;;
84818;SDS011;75053;51.080;13.712;2024-03-02T13:51:18;19.13;;;13.95;;
84818;SDS011;75053;51.080;13.712;2024-03-02T13:53:43;24.73;;;13.13;;
84818;SDS011;75053;51.080;13.712;2024-03-02T13:56:08;18.02;;;12.75;;
84818;SDS011;75053;51.080;13.712;2024-03-02T13:58:34;25.42;;;14.82;;
84818;SDS011;75053;51.080;13.712;2024-03-02T14:00:59;25.63;;;14.30;;
84818;SDS011;75053;51.080;13.712;2024-03-02T14:03:26;23.75;;;13.98;;
84818;SDS011;75053;51.080;13.712;2024-03-02T14:05:52;23.63;;;13.95;;
84818;SDS011;75053;51.080;13.712;2024-03-02T14:08:21;20.25;;;13.57;;
84818;SDS011;75053;51.080;13.712;2024-03-02T14:10:46;23.13;;;13.60;;
84818;SDS011;75053;51.080;13.712;2024-03-02T14:13:12;22.88;;;13.35;;
84818;SDS011;75053;51.080;13.712;2024-03-02T14:15:37;21.83;;;14.07;;